createdAt,value
2018-10-06T00:00:22.655Z,8.05
2018-10-06T00:02:52.439Z,8.63
2018-10-06T00:05:22.220Z,8.70
2018-10-06T00:07:51.943Z,8.13
2018-10-06T00:10:22.007Z,9.05
2018-10-06T00:12:51.755Z,8.75
2018-10-06T00:15:21.470Z,8.58
2018-10-06T00:17:51.208Z,7.67
2018-10-06T00:20:20.887Z,7.67
2018-10-06T00:22:51.198Z,7.05
2018-10-06T00:25:20.879Z,7.78
2018-10-06T00:27:50.588Z,8.28
2018-10-06T00:30:20.268Z,7.55
2018-10-06T00:32:49.976Z,6.45
2018-10-06T00:35:19.664Z,6.55
2018-10-06T00:37:49.362Z,6.20
2018-10-06T00:40:19.067Z,5.80
2018-10-06T00:42:48.754Z,6.95
2018-10-06T00:45:18.459Z,7.83
2018-10-06T00:47:48.261Z,7.70
2018-10-06T00:52:52.407Z,9.55
2018-10-06T00:55:22.063Z,8.45
2018-10-06T00:57:51.755Z,9.05
2018-10-06T01:00:21.519Z,8.45
2018-10-06T01:02:51.187Z,6.95
2018-10-06T01:05:20.955Z,7.90
2018-10-06T01:07:50.883Z,7.37
2018-10-06T01:10:20.578Z,8.08
2018-10-06T01:12:50.279Z,6.95
2018-10-06T01:15:20.003Z,7.78
2018-10-06T01:17:49.700Z,6.67
2018-10-06T01:20:19.353Z,6.30
2018-10-06T01:22:49.126Z,6.75
2018-10-06T01:25:18.770Z,6.90
2018-10-06T01:27:48.515Z,9.50
2018-10-06T01:30:18.186Z,9.93
2018-10-06T01:32:48.028Z,14.07
2018-10-06T01:35:17.711Z,10.72
2018-10-06T01:37:47.542Z,10.10
2018-10-06T01:40:17.227Z,9.05
2018-10-06T01:42:47.025Z,9.35
2018-10-06T01:45:16.686Z,8.18
2018-10-06T01:47:46.483Z,7.50
2018-10-06T01:50:16.180Z,7.42
2018-10-06T01:52:45.862Z,6.42
2018-10-06T01:55:15.568Z,6.40
2018-10-06T01:57:45.211Z,6.90
2018-10-06T02:00:14.915Z,7.22
2018-10-06T02:02:44.591Z,6.97
2018-10-06T02:05:14.310Z,7.80
2018-10-06T02:07:43.971Z,7.45
2018-10-06T02:10:13.650Z,7.83
2018-10-06T02:12:43.295Z,8.20
2018-10-06T02:15:13.059Z,7.35
2018-10-06T02:17:42.775Z,8.70
2018-10-06T02:20:12.497Z,7.83
2018-10-06T02:22:42.194Z,8.85
2018-10-06T02:25:11.883Z,8.25
2018-10-06T02:27:41.551Z,9.05
2018-10-06T02:30:11.429Z,9.40
2018-10-06T02:32:41.491Z,9.03
2018-10-06T02:35:11.218Z,9.20
2018-10-06T02:37:40.929Z,10.20
2018-10-06T02:40:11.017Z,9.25
2018-10-06T02:42:40.718Z,7.70
2018-10-06T02:45:11.042Z,8.10
2018-10-06T02:47:41.074Z,7.62
2018-10-06T02:50:10.776Z,7.47
2018-10-06T02:52:40.471Z,7.50
2018-10-06T02:55:10.151Z,8.78
2018-10-06T02:57:39.843Z,7.25
2018-10-06T03:00:09.906Z,7.03
2018-10-06T03:02:39.561Z,8.48
2018-10-06T03:05:09.282Z,7.28
2018-10-06T03:07:38.951Z,8.30
2018-10-06T03:10:08.703Z,7.75
2018-10-06T03:12:38.372Z,8.20
2018-10-06T03:15:08.055Z,8.58
2018-10-06T03:17:37.739Z,9.00
2018-10-06T03:20:07.493Z,9.23
2018-10-06T03:22:37.386Z,9.45
2018-10-06T03:25:07.207Z,9.40
2018-10-06T03:27:36.902Z,9.33
2018-10-06T03:30:06.858Z,9.03
2018-10-06T03:32:36.735Z,9.95
2018-10-06T03:35:06.875Z,9.68
2018-10-06T03:37:36.563Z,9.75
2018-10-06T03:40:06.307Z,9.30
2018-10-06T03:42:36.046Z,9.88
2018-10-06T03:45:05.821Z,9.75
2018-10-06T03:47:35.502Z,9.90
2018-10-06T03:50:05.593Z,9.23
2018-10-06T03:52:35.280Z,9.68
2018-10-06T03:55:05.079Z,9.33
2018-10-06T03:57:34.742Z,9.00
2018-10-06T04:00:04.547Z,8.95
2018-10-06T04:02:34.199Z,8.28
2018-10-06T04:05:03.919Z,9.10
2018-10-06T04:07:33.570Z,7.60
2018-10-06T04:10:03.302Z,7.72
2018-10-06T04:12:33.419Z,6.87
2018-10-06T04:15:03.333Z,8.68
2018-10-06T04:17:33.050Z,9.10
2018-10-06T04:20:02.807Z,8.88
2018-10-06T04:22:32.520Z,9.65
2018-10-06T04:25:02.299Z,9.18
2018-10-06T04:27:31.976Z,7.42
2018-10-06T04:30:01.716Z,8.08
2018-10-06T04:32:31.820Z,7.78
2018-10-06T04:35:01.547Z,7.83
2018-10-06T04:37:31.258Z,8.38
2018-10-06T04:40:00.981Z,7.17
2018-10-06T04:42:30.979Z,9.08
2018-10-06T04:45:06.363Z,8.45
2018-10-06T04:47:36.175Z,16.37
2018-10-06T04:50:06.895Z,11.83
2018-10-06T04:52:36.808Z,10.55
2018-10-06T04:55:07.420Z,9.15
2018-10-06T04:57:37.835Z,7.67
2018-10-06T05:00:07.972Z,8.18
2018-10-06T05:02:37.827Z,6.67
2018-10-06T05:05:07.701Z,8.18
2018-10-06T05:07:37.771Z,8.40
2018-10-06T05:10:07.946Z,8.13
2018-10-06T05:12:38.233Z,9.50
2018-10-06T05:15:08.218Z,9.73
2018-10-06T05:17:37.938Z,9.90
2018-10-06T05:20:07.822Z,8.43
2018-10-06T05:22:37.537Z,9.35
2018-10-06T05:25:07.787Z,9.40
2018-10-06T05:27:37.484Z,8.93
2018-10-06T05:30:07.787Z,9.00
2018-10-06T05:32:37.495Z,10.00
2018-10-06T05:35:07.924Z,8.15
2018-10-06T05:37:37.667Z,8.28
2018-10-06T05:40:07.512Z,6.42
2018-10-06T05:42:37.222Z,6.97
2018-10-06T05:45:06.899Z,6.97
2018-10-06T05:47:36.574Z,6.40
2018-10-06T05:50:06.815Z,7.60
2018-10-06T05:52:36.535Z,7.50
2018-10-06T05:55:06.331Z,7.42
2018-10-06T05:57:36.307Z,7.47
2018-10-06T06:00:06.008Z,6.85
2018-10-06T06:02:35.711Z,7.50
2018-10-06T06:05:08.840Z,7.20
2018-10-06T06:07:38.508Z,7.65
2018-10-06T06:10:08.263Z,8.25
2018-10-06T06:12:38.372Z,8.63
2018-10-06T06:15:08.367Z,7.22
2018-10-06T06:17:38.905Z,6.37
2018-10-06T06:20:08.706Z,9.00
2018-10-06T06:22:38.454Z,6.42
2018-10-06T06:25:08.268Z,7.65
2018-10-06T06:27:37.998Z,7.50
2018-10-06T06:30:07.711Z,7.45
2018-10-06T06:32:37.391Z,8.05
2018-10-06T06:35:07.104Z,7.60
2018-10-06T06:37:36.904Z,7.87
2018-10-06T06:40:06.747Z,8.73
2018-10-06T06:42:36.500Z,7.90
2018-10-06T06:45:06.274Z,8.78
2018-10-06T06:47:36.160Z,9.10
2018-10-06T06:50:05.921Z,9.33
2018-10-06T06:52:35.746Z,9.93
2018-10-06T06:55:05.956Z,9.23
2018-10-06T06:57:35.928Z,10.38
2018-10-06T07:00:06.270Z,9.73
2018-10-06T07:02:35.999Z,10.23
2018-10-06T07:05:05.798Z,10.35
2018-10-06T07:07:35.560Z,10.88
2018-10-06T07:10:05.607Z,10.20
2018-10-06T07:12:35.568Z,10.30
2018-10-06T07:15:05.449Z,9.80
2018-10-06T07:17:35.159Z,9.50
2018-10-06T07:20:05.276Z,10.05
2018-10-06T07:22:35.005Z,9.33
2018-10-06T07:25:05.161Z,9.98
2018-10-06T07:27:35.157Z,9.28
2018-10-06T07:30:04.995Z,9.10
2018-10-06T07:32:34.720Z,9.15
2018-10-06T07:35:04.651Z,9.13
2018-10-06T07:37:34.351Z,9.60
2018-10-06T07:40:04.395Z,9.48
2018-10-06T07:42:34.185Z,8.60
2018-10-06T07:45:03.977Z,8.83
2018-10-06T07:47:33.794Z,8.63
2018-10-06T07:50:03.467Z,8.18
2018-10-06T07:52:33.170Z,8.65
2018-10-06T07:55:02.852Z,8.23
2018-10-06T07:57:32.504Z,7.72
2018-10-06T08:00:02.182Z,7.55
2018-10-06T08:02:31.819Z,7.95
2018-10-06T08:05:01.483Z,7.60
2018-10-06T08:07:31.151Z,8.03
2018-10-06T08:10:00.815Z,8.60
2018-10-06T08:12:30.459Z,9.20
2018-10-06T08:15:00.171Z,8.68
2018-10-06T08:17:29.878Z,9.33
2018-10-06T08:19:59.561Z,8.68
2018-10-06T08:22:29.267Z,8.40
2018-10-06T08:24:58.950Z,8.35
2018-10-06T08:27:28.857Z,8.43
2018-10-06T08:29:58.528Z,8.48
2018-10-06T08:32:28.284Z,7.65
2018-10-06T08:34:57.959Z,6.37
2018-10-06T08:37:27.604Z,6.78
2018-10-06T08:39:57.298Z,6.55
2018-10-06T08:42:26.955Z,7.20
2018-10-06T08:44:56.666Z,6.60
2018-10-06T08:47:26.318Z,6.12
2018-10-06T08:49:56.052Z,6.58
2018-10-06T08:52:25.868Z,5.30
2018-10-06T08:54:55.588Z,5.08
2018-10-06T08:57:25.260Z,5.67
2018-10-06T08:59:54.944Z,5.67
2018-10-06T09:02:24.591Z,6.70
2018-10-06T09:04:54.268Z,5.10
2018-10-06T09:07:23.925Z,5.30
2018-10-06T09:09:53.971Z,5.20
2018-10-06T09:12:23.623Z,5.25
2018-10-06T09:14:53.322Z,5.17
2018-10-06T09:17:23.060Z,5.33
2018-10-06T09:19:52.769Z,4.65
2018-10-06T09:22:22.603Z,4.28
2018-10-06T09:24:52.281Z,3.80
2018-10-06T09:27:21.978Z,4.17
2018-10-06T09:29:51.722Z,3.40
2018-10-06T09:32:21.380Z,3.98
2018-10-06T09:34:51.063Z,4.10
2018-10-06T09:37:20.730Z,3.40
2018-10-06T09:39:50.396Z,2.90
2018-10-06T09:42:20.169Z,3.87
2018-10-06T09:44:49.910Z,3.30
2018-10-06T09:47:19.563Z,2.90
2018-10-06T09:49:49.242Z,3.20
2018-10-06T09:52:18.882Z,2.92
2018-10-06T09:54:48.583Z,3.60
2018-10-06T09:57:18.234Z,3.65
2018-10-06T09:59:47.911Z,3.55
2018-10-06T10:02:23.055Z,3.95
2018-10-06T10:04:52.762Z,3.10
2018-10-06T10:07:22.456Z,2.85
2018-10-06T10:09:52.171Z,3.27
2018-10-06T10:12:22.028Z,2.85
2018-10-06T10:14:51.897Z,2.60
2018-10-06T10:17:21.656Z,2.60
2018-10-06T10:19:51.823Z,3.00
2018-10-06T10:22:21.745Z,2.77
2018-10-06T10:24:51.607Z,2.45
2018-10-06T10:27:21.290Z,2.15
2018-10-06T10:29:51.026Z,1.90
2018-10-06T10:32:20.714Z,2.12
2018-10-06T10:34:50.408Z,1.55
2018-10-06T10:37:20.149Z,1.92
2018-10-06T10:39:50.092Z,2.33
2018-10-06T10:42:19.933Z,1.80
2018-10-06T10:44:49.606Z,1.80
2018-10-06T10:47:19.298Z,2.12
2018-10-06T10:49:48.991Z,1.90
2018-10-06T10:52:18.721Z,1.72
2018-10-06T10:54:48.407Z,1.70
2018-10-06T10:57:18.218Z,1.92
2018-10-06T10:59:48.039Z,1.80
2018-10-06T11:02:17.815Z,1.85
2018-10-06T11:04:47.581Z,1.80
2018-10-06T11:07:17.800Z,1.70
2018-10-06T11:09:47.523Z,1.80
2018-10-06T11:12:17.246Z,1.82
2018-10-06T11:14:46.991Z,2.00
2018-10-06T11:17:16.882Z,1.72
2018-10-06T11:19:47.091Z,1.80
2018-10-06T11:22:17.007Z,1.60
2018-10-06T11:24:46.708Z,1.57
2018-10-06T11:27:16.601Z,2.08
2018-10-06T11:29:46.327Z,1.98
2018-10-06T11:32:16.038Z,1.80
2018-10-06T11:34:45.734Z,1.50
2018-10-06T11:37:15.465Z,1.90
2018-10-06T11:39:45.383Z,1.70
2018-10-06T11:42:15.099Z,1.75
2018-10-06T11:44:44.826Z,2.60
2018-10-06T11:47:14.899Z,1.65
2018-10-06T11:49:44.638Z,1.50
2018-10-06T11:52:14.527Z,1.77
2018-10-06T11:54:44.210Z,1.60
2018-10-06T11:57:13.926Z,1.90
2018-10-06T11:59:43.685Z,1.87
2018-10-06T12:02:13.546Z,2.08
2018-10-06T12:04:43.228Z,2.10
2018-10-06T12:07:12.946Z,2.15
2018-10-06T12:09:42.632Z,1.90
2018-10-06T12:12:12.330Z,2.00
2018-10-06T12:14:42.031Z,1.90
2018-10-06T12:17:11.779Z,1.80
2018-10-06T12:19:41.447Z,1.72
2018-10-06T12:22:11.127Z,1.50
2018-10-06T12:24:41.103Z,2.22
2018-10-06T12:27:10.803Z,1.75
2018-10-06T12:29:40.482Z,2.00
2018-10-06T12:32:10.170Z,2.27
2018-10-06T12:34:39.864Z,1.90
2018-10-06T12:37:09.739Z,2.17
2018-10-06T12:39:41.115Z,2.50
2018-10-06T12:42:10.875Z,1.87
2018-10-06T12:44:40.698Z,1.65
2018-10-06T12:47:10.626Z,1.80
2018-10-06T12:49:40.300Z,1.80
2018-10-06T12:52:09.983Z,2.22
2018-10-06T12:54:39.697Z,2.42
2018-10-06T12:57:09.382Z,2.60
2018-10-06T12:59:39.042Z,1.90
2018-10-06T13:02:08.751Z,1.90
2018-10-06T13:04:38.671Z,2.00
2018-10-06T13:07:08.363Z,2.00
2018-10-06T13:09:38.036Z,1.90
2018-10-06T13:12:07.739Z,1.60
2018-10-06T13:14:37.439Z,2.00
2018-10-06T13:17:07.177Z,1.80
2018-10-06T13:19:36.890Z,1.82
2018-10-06T13:22:06.685Z,1.80
2018-10-06T13:24:36.368Z,2.02
2018-10-06T13:27:06.143Z,2.40
2018-10-06T13:29:35.834Z,2.35
2018-10-06T13:32:05.615Z,3.50
2018-10-06T13:34:35.295Z,4.17
2018-10-06T13:37:05.602Z,5.10
2018-10-06T13:39:35.278Z,4.12
2018-10-06T13:42:04.980Z,5.25
2018-10-06T13:44:34.650Z,5.62
2018-10-06T13:47:04.376Z,5.85
2018-10-06T13:49:34.061Z,6.08
2018-10-06T13:52:03.739Z,6.35
2018-10-06T13:54:33.431Z,5.53
2018-10-06T13:57:03.138Z,5.58
2018-10-06T13:59:32.877Z,6.00
2018-10-06T14:02:02.828Z,5.60
2018-10-06T14:04:33.255Z,6.30
2018-10-06T14:07:02.948Z,5.10
2018-10-06T14:09:32.630Z,5.35
2018-10-06T14:12:02.300Z,4.92
2018-10-06T14:14:32.299Z,4.60
2018-10-06T14:17:01.977Z,5.10
2018-10-06T14:19:31.671Z,4.53
2018-10-06T14:22:01.388Z,4.70
2018-10-06T14:24:31.099Z,4.95
2018-10-06T14:27:00.783Z,4.45
2018-10-06T14:29:30.782Z,4.30
2018-10-06T14:32:00.496Z,4.67
2018-10-06T14:34:30.211Z,4.90
2018-10-06T14:36:59.885Z,4.55
2018-10-06T14:39:29.562Z,4.00
2018-10-06T14:41:59.255Z,4.40
2018-10-06T14:44:29.321Z,4.50
2018-10-06T14:46:59.197Z,4.53
2018-10-06T14:49:29.087Z,4.60
2018-10-06T14:51:58.783Z,5.28
2018-10-06T14:54:28.488Z,6.12
2018-10-06T14:56:58.177Z,4.60
2018-10-06T14:59:28.065Z,4.40
2018-10-06T15:01:57.762Z,4.50
2018-10-06T15:04:27.432Z,5.03
2018-10-06T15:06:57.111Z,4.90
2018-10-06T15:09:26.803Z,4.12
2018-10-06T15:11:56.451Z,4.90
2018-10-06T15:14:26.142Z,5.05
2018-10-06T15:16:55.836Z,6.83
2018-10-06T15:19:25.544Z,6.00
2018-10-06T15:21:55.213Z,6.47
2018-10-06T15:24:24.934Z,5.92
2018-10-06T15:26:54.598Z,6.28
2018-10-06T15:29:24.279Z,6.62
2018-10-06T15:31:54.259Z,5.70
2018-10-06T15:34:23.971Z,4.78
2018-10-06T15:36:53.619Z,4.65
2018-10-06T15:39:23.347Z,4.62
2018-10-06T15:41:52.999Z,4.78
2018-10-06T15:44:22.719Z,4.47
2018-10-06T15:46:52.391Z,6.08
2018-10-06T15:49:22.055Z,5.87
2018-10-06T15:51:51.738Z,4.75
2018-10-06T15:54:21.458Z,4.53
2018-10-06T15:56:51.313Z,5.42
2018-10-06T15:59:21.184Z,6.75
2018-10-06T16:01:50.887Z,5.53
2018-10-06T16:04:20.599Z,6.47
2018-10-06T16:06:50.307Z,5.95
2018-10-06T16:09:20.039Z,5.80
2018-10-06T16:11:49.727Z,6.12
2018-10-06T16:14:19.415Z,6.45
2018-10-06T16:16:49.078Z,6.08
2018-10-06T16:19:18.795Z,5.53
2018-10-06T16:21:55.246Z,5.47
2018-10-06T16:24:24.959Z,5.50
2018-10-06T16:26:54.823Z,5.50
2018-10-06T16:29:24.480Z,5.25
2018-10-06T16:31:54.236Z,4.25
2018-10-06T16:34:23.977Z,5.22
2018-10-06T16:36:53.730Z,5.62
2018-10-06T16:39:23.383Z,5.47
2018-10-06T16:41:53.023Z,4.92
2018-10-06T16:44:22.664Z,5.53
2018-10-06T16:46:52.320Z,4.83
2018-10-06T16:49:21.950Z,4.83
2018-10-06T16:51:51.689Z,5.03
2018-10-06T16:54:21.527Z,5.20
2018-10-06T16:56:51.210Z,5.47
2018-10-06T16:59:20.903Z,5.30
2018-10-06T17:01:50.665Z,5.25
2018-10-06T17:04:20.446Z,5.42
2018-10-06T17:06:50.131Z,5.58
2018-10-06T17:09:19.791Z,5.58
2018-10-06T17:11:49.463Z,5.28
2018-10-06T17:14:19.126Z,4.83
2018-10-06T17:16:48.811Z,4.30
2018-10-06T17:19:18.504Z,4.85
2018-10-06T17:21:48.203Z,5.20
2018-10-06T17:24:17.933Z,5.75
2018-10-06T17:26:47.784Z,6.15
2018-10-06T17:29:17.447Z,6.00
2018-10-06T17:31:47.115Z,6.30
2018-10-06T17:34:16.809Z,4.70
2018-10-06T17:36:46.806Z,5.83
2018-10-06T17:39:16.539Z,5.28
2018-10-06T17:41:46.588Z,5.47
2018-10-06T17:44:16.397Z,5.95
2018-10-06T17:46:46.299Z,5.10
2018-10-06T17:49:16.006Z,4.78
2018-10-06T17:51:45.746Z,5.05
2018-10-06T17:54:15.744Z,5.15
2018-10-06T17:56:45.485Z,5.00
2018-10-06T17:59:15.349Z,5.30
2018-10-06T18:01:45.502Z,6.42
2018-10-06T18:04:15.809Z,6.10
2018-10-06T18:06:45.843Z,6.17
2018-10-06T18:09:15.567Z,5.92
2018-10-06T18:11:45.281Z,5.50
2018-10-06T18:14:15.002Z,5.37
2018-10-06T18:16:44.763Z,5.50
2018-10-06T18:19:14.546Z,5.30
2018-10-06T18:21:44.579Z,4.67
2018-10-06T18:24:14.334Z,5.80
2018-10-06T18:26:44.791Z,5.20
2018-10-06T18:29:14.531Z,6.12
2018-10-06T18:31:44.557Z,4.75
2018-10-06T18:34:14.228Z,5.78
2018-10-06T18:36:44.019Z,5.65
2018-10-06T18:39:13.850Z,5.22
2018-10-06T18:41:43.600Z,5.05
2018-10-06T18:44:13.547Z,5.28
2018-10-06T18:46:43.608Z,5.87
2018-10-06T18:49:13.697Z,5.60
2018-10-06T18:51:43.876Z,5.85
2018-10-06T18:54:14.012Z,5.25
2018-10-06T18:56:43.711Z,5.60
2018-10-06T18:59:13.738Z,5.65
2018-10-06T19:01:43.420Z,7.75
2018-10-06T19:04:13.396Z,7.30
2018-10-06T19:06:43.232Z,7.47
2018-10-06T19:09:13.299Z,7.35
2018-10-06T19:11:43.008Z,7.47
2018-10-06T19:14:12.731Z,7.30
2018-10-06T19:16:42.791Z,7.92
2018-10-06T19:19:12.498Z,7.35
2018-10-06T19:21:42.156Z,7.75
2018-10-06T19:24:11.859Z,7.00
2018-10-06T19:26:41.540Z,7.08
2018-10-06T19:29:11.191Z,7.30
2018-10-06T19:31:40.860Z,7.12
2018-10-06T19:34:10.579Z,8.15
2018-10-06T19:36:40.236Z,7.92
2018-10-06T19:39:10.235Z,7.08
2018-10-06T19:41:40.267Z,7.20
2018-10-06T19:44:09.959Z,7.03
2018-10-06T19:46:39.672Z,6.92
2018-10-06T19:49:09.370Z,7.08
2018-10-06T19:51:39.058Z,6.35
2018-10-06T19:54:08.977Z,7.72
2018-10-06T19:56:38.732Z,7.15
2018-10-06T19:59:08.547Z,7.80
2018-10-06T20:01:38.303Z,8.40
2018-10-06T20:04:08.073Z,7.30
2018-10-06T20:06:38.016Z,8.25
2018-10-06T20:09:09.175Z,7.50
2018-10-06T20:11:39.249Z,7.70
2018-10-06T20:14:09.295Z,8.50
2018-10-06T20:16:39.123Z,8.60
2018-10-06T20:19:08.936Z,7.62
2018-10-06T20:21:38.800Z,7.67
2018-10-06T20:24:08.655Z,7.85
2018-10-06T20:26:38.432Z,7.58
2018-10-06T20:29:08.746Z,7.33
2018-10-06T20:31:38.534Z,7.10
2018-10-06T20:34:08.411Z,7.70
2018-10-06T20:36:38.238Z,7.70
2018-10-06T20:39:09.504Z,7.42
2018-10-06T20:41:39.591Z,7.62
2018-10-06T20:44:09.441Z,6.70
2018-10-06T20:46:39.279Z,8.05
2018-10-06T20:49:09.116Z,7.55
2018-10-06T20:51:38.813Z,8.28
2018-10-06T20:54:08.524Z,7.87
2018-10-06T20:56:38.346Z,6.55
2018-10-06T20:59:08.060Z,6.58
2018-10-06T21:01:37.768Z,7.08
2018-10-06T21:04:07.547Z,8.15
2018-10-06T21:06:37.389Z,6.85
2018-10-06T21:09:10.072Z,8.13
2018-10-06T21:11:39.942Z,7.85
2018-10-06T21:14:09.732Z,7.62
2018-10-06T21:16:39.438Z,6.78
2018-10-06T21:19:09.236Z,7.30
2018-10-06T21:21:38.964Z,6.80
2018-10-06T21:24:08.734Z,7.03
2018-10-06T21:26:38.467Z,6.97
2018-10-06T21:29:08.225Z,6.92
2018-10-06T21:31:38.106Z,6.10
2018-10-06T21:34:07.859Z,6.00
2018-10-06T21:36:37.537Z,6.75
2018-10-06T21:39:08.920Z,6.95
2018-10-06T21:41:38.654Z,7.30
2018-10-06T21:44:08.404Z,7.45
2018-10-06T21:46:38.163Z,8.23
2018-10-06T21:49:07.955Z,7.80
2018-10-06T21:51:37.692Z,7.72
2018-10-06T21:54:07.486Z,7.20
2018-10-06T21:56:37.243Z,6.67
2018-10-06T21:59:06.990Z,6.50
2018-10-06T22:01:36.703Z,7.70
2018-10-06T22:04:06.489Z,7.30
2018-10-06T22:06:36.339Z,6.83
2018-10-06T22:09:06.855Z,7.80
2018-10-06T22:11:36.636Z,8.20
2018-10-06T22:14:06.865Z,7.83
2018-10-06T22:16:36.548Z,7.40
2018-10-06T22:19:06.616Z,6.90
2018-10-06T22:21:36.295Z,8.10
2018-10-06T22:24:06.335Z,7.45
2018-10-06T22:26:36.036Z,7.47
2018-10-06T22:29:06.145Z,7.33
2018-10-06T22:31:36.303Z,7.97
2018-10-06T22:34:05.987Z,9.13
2018-10-06T22:36:35.691Z,7.53
2018-10-06T22:39:07.122Z,8.08
2018-10-06T22:41:36.804Z,8.53
2018-10-06T22:44:06.879Z,8.03
2018-10-06T22:46:36.578Z,7.97
2018-10-06T22:49:06.271Z,7.40
2018-10-06T22:51:35.959Z,7.30
2018-10-06T22:54:05.651Z,7.58
2018-10-06T22:56:35.343Z,7.83
2018-10-06T22:59:05.053Z,7.28
2018-10-06T23:01:34.750Z,7.35
2018-10-06T23:04:04.434Z,6.80
2018-10-06T23:06:34.415Z,7.03
2018-10-06T23:09:06.373Z,7.22
2018-10-06T23:11:36.489Z,7.90
2018-10-06T23:14:06.375Z,7.50
2018-10-06T23:16:36.039Z,8.40
2018-10-06T23:19:05.871Z,7.40
2018-10-06T23:21:35.547Z,7.22
2018-10-06T23:24:05.554Z,7.87
2018-10-06T23:26:35.198Z,6.90
2018-10-06T23:29:04.838Z,7.67
2018-10-06T23:31:34.498Z,7.90
2018-10-06T23:34:04.144Z,7.90
2018-10-06T23:36:33.807Z,8.55
2018-10-06T23:39:04.166Z,7.10
2018-10-06T23:41:34.150Z,8.50
2018-10-06T23:44:03.828Z,8.38
2018-10-06T23:46:33.514Z,8.28
2018-10-06T23:49:03.144Z,8.53
2018-10-06T23:51:32.810Z,7.72
2018-10-06T23:54:02.474Z,9.28
2018-10-06T23:56:32.139Z,8.28
2018-10-06T23:59:01.790Z,8.90
